Time;durP1;ratioP1;P1;durP2;ratioP2;P2;SDS_P1;SDS_P2;PMS_P1;PMS_P2;Temp;Humidity;BMP_temperature;BMP_pressure;BME280_temperature;BME280_humidity;BME280_pressure;Samples;Min_cycle;Max_cycle;Signal;HPM_P1;HPM_P2
2023/08/11 00:00:04;;;;;;;1.38;1.27;;;21.00;72.70;;;;;;5082947;28;20184;-70
2023/08/11 00:02:40;;;;;;;1.60;1.50;;;21.00;72.60;;;;;;5102367;28;20196;-69
2023/08/11 00:05:08;;;;;;;1.50;1.40;;;21.10;72.70;;;;;;5088628;28;20181;-70
2023/08/11 00:07:34;;;;;;;1.67;1.58;;;21.00;72.60;;;;;;5075938;28;20188;-69
2023/08/11 00:09:59;;;;;;;1.58;1.48;;;21.10;72.70;;;;;;5076056;28;20299;-69
2023/08/11 00:12:25;;;;;;;1.85;1.75;;;21.00;72.60;;;;;;5065400;28;20288;-71
2023/08/11 00:14:52;;;;;;;1.65;1.55;;;21.00;72.60;;;;;;5084121;28;20188;-69
2023/08/11 00:17:19;;;;;;;1.67;1.58;;;21.00;72.60;;;;;;5075267;28;20188;-70
2023/08/11 00:19:44;;;;;;;1.30;1.20;;;21.00;72.60;;;;;;5075305;28;20205;-70
2023/08/11 00:22:10;;;;;;;1.50;1.40;;;21.00;72.70;;;;;;5063650;28;20192;-69
2023/08/11 00:24:36;;;;;;;1.35;1.25;;;21.00;72.60;;;;;;5084054;28;20177;-69
2023/08/11 00:27:03;;;;;;;1.40;1.30;;;21.00;72.70;;;;;;5075090;28;20181;-69
2023/08/11 00:29:31;;;;;;;1.70;1.60;;;21.00;72.70;;;;;;5083502;28;20212;-69
2023/08/11 00:31:56;;;;;;;1.60;1.50;;;21.00;72.60;;;;;;5083982;28;20300;-69
2023/08/11 00:34:23;;;;;;;1.40;1.30;;;21.00;72.70;;;;;;5086011;28;20173;-69
2023/08/11 00:36:49;;;;;;;1.75;1.65;;;21.00;72.70;;;;;;5080147;28;20643;-70
2023/08/11 00:39:15;;;;;;;1.60;1.50;;;21.00;72.70;;;;;;5095276;28;20205;-70
2023/08/11 00:41:41;;;;;;;1.50;1.40;;;21.00;72.80;;;;;;5079797;28;20574;-70
2023/08/11 00:44:07;;;;;;;1.80;1.70;;;21.00;72.70;;;;;;5053720;28;20274;-69
2023/08/11 00:46:34;;;;;;;1.63;1.52;;;21.00;72.70;;;;;;5083483;28;20209;-70
2023/08/11 00:49:00;;;;;;;1.70;1.60;;;21.00;72.70;;;;;;5080591;28;20272;-70
2023/08/11 00:51:28;;;;;;;1.42;1.33;;;21.00;72.70;;;;;;5060965;28;20226;-70
2023/08/11 00:53:57;;;;;;;1.70;1.60;;;21.00;72.70;;;;;;5097862;28;20185;-69
2023/08/11 00:56:23;;;;;;;1.65;1.55;;;21.00;72.70;;;;;;5088902;28;20185;-70
2023/08/11 00:58:51;;;;;;;1.38;1.27;;;21.00;72.80;;;;;;5074740;28;20196;-69
2023/08/11 01:01:17;;;;;;;1.65;1.55;;;21.00;72.70;;;;;;5083115;28;20242;-69
2023/08/11 01:03:45;;;;;;;1.50;1.40;;;21.00;72.70;;;;;;5062872;28;20189;-70
2023/08/11 01:06:42;;;;;;;1.60;1.50;;;21.00;72.70;;;;;;5053402;28;20320;-71
2023/08/11 01:10:12;;;;;;;1.63;1.52;;;21.00;72.60;;;;;;5092424;28;20254;-70
2023/08/11 01:13:16;;;;;;;1.30;1.20;;;21.00;72.70;;;;;;5040742;28;20241;-70
2023/08/11 01:15:54;;;;;;;1.50;1.40;;;21.00;72.70;;;;;;5073941;28;20188;-69
2023/08/11 01:18:22;;;;;;;1.90;1.50;;;21.00;72.70;;;;;;5074183;28;20215;-70
2023/08/11 01:20:55;;;;;;;1.52;1.42;;;21.00;72.70;;;;;;5065317;28;20284;-69
2023/08/11 01:23:25;;;;;;;1.73;1.63;;;21.00;72.80;;;;;;5074306;28;20220;-70
2023/08/11 01:25:55;;;;;;;1.60;1.50;;;21.00;72.70;;;;;;5064969;28;20185;-69
2023/08/11 01:28:22;;;;;;;1.55;1.45;;;21.00;72.70;;;;;;5074155;28;20212;-70
2023/08/11 01:30:48;;;;;;;1.63;1.50;;;21.00;72.70;;;;;;5082615;28;20180;-70
2023/08/11 01:33:15;;;;;;;1.58;1.48;;;21.00;72.70;;;;;;5057179;28;20212;-67
2023/08/11 01:35:40;;;;;;;1.75;1.65;;;21.00;72.70;;;;;;5082643;28;20184;-70
2023/08/11 01:38:10;;;;;;;1.52;1.42;;;21.00;72.80;;;;;;5090610;28;20254;-69
2023/08/11 01:40:37;;;;;;;1.52;1.42;;;21.00;72.80;;;;;;5057278;28;20185;-69
2023/08/11 01:43:05;;;;;;;1.40;1.30;;;21.00;72.70;;;;;;5079731;28;20188;-69
2023/08/11 01:45:31;;;;;;;1.45;1.35;;;21.00;72.70;;;;;;5085729;28;20212;-71
2023/08/11 01:48:00;;;;;;;1.60;1.50;;;21.00;72.70;;;;;;5082099;28;20205;-70
2023/08/11 01:50:28;;;;;;;1.50;1.40;;;20.90;72.60;;;;;;5073898;28;20200;-70
2023/08/11 01:52:55;;;;;;;1.30;1.30;;;20.90;72.60;;;;;;5082378;28;20209;-69
2023/08/11 01:55:24;;;;;;;1.67;1.58;;;21.00;72.70;;;;;;5057228;28;20188;-70
2023/08/11 01:57:52;;;;;;;1.58;1.48;;;20.90;72.60;;;;;;5077757;28;20282;-69
2023/08/11 02:00:17;;;;;;;1.63;1.52;;;21.00;72.70;;;;;;5078274;28;20204;-70
2023/08/11 02:02:45;;;;;;;1.25;1.15;;;20.90;73.10;;;;;;5065008;28;20275;-70
2023/08/11 02:05:12;;;;;;;1.60;1.50;;;21.00;73.00;;;;;;5055973;28;20720;-70
2023/08/11 02:07:40;;;;;;;1.55;1.30;;;20.90;72.70;;;;;;5092243;28;20579;-69
2023/08/11 02:10:08;;;;;;;1.30;1.20;;;21.00;72.80;;;;;;5085552;28;20184;-71
2023/08/11 02:12:35;;;;;;;1.48;1.38;;;20.90;72.70;;;;;;5073437;28;20212;-69
2023/08/11 02:15:01;;;;;;;1.60;1.50;;;20.90;72.70;;;;;;5073773;28;20185;-69
2023/08/11 02:17:27;;;;;;;1.25;1.20;;;20.90;72.70;;;;;;5073331;28;20679;-69
2023/08/11 02:19:53;;;;;;;1.52;1.42;;;20.90;72.70;;;;;;5062248;28;20178;-70
2023/08/11 02:22:19;;;;;;;1.35;1.30;;;20.90;72.70;;;;;;5053888;28;20567;-69
2023/08/11 02:24:45;;;;;;;1.65;1.55;;;20.90;72.70;;;;;;5081244;28;20207;-69
2023/08/11 02:27:13;;;;;;;1.60;1.50;;;21.00;72.80;;;;;;5091521;28;20180;-73
2023/08/11 02:29:38;;;;;;;1.40;1.30;;;20.90;72.70;;;;;;5093714;28;20234;-70
2023/08/11 02:32:07;;;;;;;1.65;1.55;;;20.90;72.70;;;;;;5063268;28;20228;-69
2023/08/11 02:34:34;;;;;;;1.60;1.50;;;20.90;72.70;;;;;;5073569;28;20185;-69
2023/08/11 02:37:00;;;;;;;1.40;1.30;;;20.90;72.70;;;;;;5048642;28;20193;-69
2023/08/11 02:39:26;;;;;;;1.50;1.40;;;20.90;72.70;;;;;;5055742;28;20233;-71
2023/08/11 02:41:52;;;;;;;1.60;1.50;;;20.90;72.70;;;;;;5060777;28;20214;-69
2023/08/11 02:44:18;;;;;;;2.08;1.42;;;20.90;72.60;;;;;;5059254;28;20184;-69
2023/08/11 02:46:44;;;;;;;1.60;1.50;;;20.90;72.70;;;;;;5076693;28;20239;-70
2023/08/11 02:49:09;;;;;;;1.60;1.50;;;20.90;72.60;;;;;;5079414;28;20217;-69
2023/08/11 02:51:35;;;;;;;1.85;1.73;;;20.90;72.60;;;;;;5092140;28;20197;-69
2023/08/11 02:54:01;;;;;;;1.45;1.35;;;20.90;72.60;;;;;;5063630;28;20193;-69
2023/08/11 02:56:27;;;;;;;1.50;1.40;;;20.90;72.60;;;;;;5073616;28;20207;-71
2023/08/11 02:58:56;;;;;;;1.65;1.52;;;20.90;72.60;;;;;;5081338;28;20224;-70
2023/08/11 03:01:24;;;;;;;1.60;1.50;;;20.90;72.70;;;;;;5073380;28;20180;-70
2023/08/11 03:03:51;;;;;;;1.20;1.20;;;20.90;72.70;;;;;;5081517;28;20177;-69
2023/08/11 03:06:17;;;;;;;1.63;1.52;;;20.90;72.70;;;;;;5056867;28;20217;-69
2023/08/11 03:08:43;;;;;;;1.80;1.70;;;20.90;72.70;;;;;;5081361;28;20229;-69
2023/08/11 03:11:10;;;;;;;1.60;1.50;;;20.90;72.70;;;;;;5081555;28;20185;-69
2023/08/11 03:13:36;;;;;;;1.60;1.50;;;20.90;72.60;;;;;;5081407;28;20205;-69
2023/08/11 03:16:02;;;;;;;1.67;1.58;;;20.90;72.70;;;;;;5100040;28;20185;-70
2023/08/11 03:18:30;;;;;;;1.60;1.50;;;20.90;72.70;;;;;;5084433;28;20231;-70
2023/08/11 03:20:58;;;;;;;1.50;1.40;;;20.80;72.50;;;;;;5089302;28;20176;-69
2023/08/11 03:23:24;;;;;;;1.70;1.60;;;20.90;72.70;;;;;;5080978;28;20184;-69
2023/08/11 03:25:52;;;;;;;1.55;1.45;;;20.80;72.60;;;;;;5079231;28;20192;-69
2023/08/11 03:28:20;;;;;;;1.60;1.50;;;20.80;72.50;;;;;;5065135;28;20239;-69
2023/08/11 03:30:47;;;;;;;1.38;1.27;;;20.80;72.60;;;;;;5076228;28;20594;-69
2023/08/11 03:33:13;;;;;;;1.40;1.30;;;20.80;72.50;;;;;;5076212;28;20330;-70
2023/08/11 03:35:48;;;;;;;1.58;1.48;;;20.80;72.50;;;;;;5076412;28;20207;-69
2023/08/11 03:38:14;;;;;;;1.73;1.63;;;20.90;72.60;;;;;;5084413;28;20695;-70
2023/08/11 03:40:40;;;;;;;1.50;1.40;;;20.80;72.50;;;;;;5076041;28;20259;-69
2023/08/11 03:43:07;;;;;;;1.70;1.60;;;20.80;72.50;;;;;;5076590;28;20181;-69
2023/08/11 03:45:35;;;;;;;1.40;1.30;;;20.80;72.40;;;;;;5076068;28;20185;-73
2023/08/11 03:48:04;;;;;;;1.60;1.50;;;20.80;72.50;;;;;;5075769;28;20236;-70
2023/08/11 03:50:29;;;;;;;1.65;1.40;;;20.80;72.50;;;;;;5075986;28;20211;-71
2023/08/11 03:52:56;;;;;;;1.52;1.42;;;20.80;72.50;;;;;;5084370;28;20200;-70
2023/08/11 03:55:22;;;;;;;1.80;1.70;;;20.80;72.50;;;;;;5101212;28;20238;-70
2023/08/11 03:57:48;;;;;;;1.60;1.50;;;20.80;72.50;;;;;;5070608;28;20291;-70
2023/08/11 04:00:19;;;;;;;1.60;1.50;;;20.80;72.60;;;;;;5082201;28;20276;-69
2023/08/11 04:02:52;;;;;;;1.45;1.35;;;20.80;72.60;;;;;;5076626;28;20717;-69
2023/08/11 04:05:18;;;;;;;1.70;1.60;;;20.80;72.60;;;;;;5065257;28;20213;-69
2023/08/11 04:07:44;;;;;;;1.35;1.25;;;20.80;72.50;;;;;;5067338;28;20181;-69
2023/08/11 04:10:11;;;;;;;1.35;1.27;;;20.80;72.60;;;;;;5080962;28;20291;-70
2023/08/11 04:12:37;;;;;;;1.35;1.25;;;20.80;72.50;;;;;;5090361;28;20300;-69
2023/08/11 04:15:05;;;;;;;1.15;1.15;;;20.80;72.50;;;;;;5087733;28;20184;-69
2023/08/11 04:17:33;;;;;;;1.50;1.40;;;20.80;72.50;;;;;;5075401;28;20258;-71
2023/08/11 04:20:00;;;;;;;1.42;1.33;;;20.80;72.60;;;;;;5084183;28;20192;-70
2023/08/11 04:22:26;;;;;;;1.48;1.38;;;20.80;72.50;;;;;;5089079;28;20250;-70
2023/08/11 04:24:52;;;;;;;1.30;1.30;;;20.80;72.50;;;;;;5075497;28;20215;-69
2023/08/11 04:27:17;;;;;;;1.30;1.20;;;20.80;72.50;;;;;;5100289;28;20226;-70
2023/08/11 04:29:47;;;;;;;1.70;1.60;;;20.80;72.50;;;;;;5069301;28;20209;-70
2023/08/11 04:32:13;;;;;;;1.58;1.48;;;20.80;72.50;;;;;;5058433;28;20604;-69
2023/08/11 04:34:38;;;;;;;1.25;1.25;;;20.80;72.50;;;;;;5083880;28;20181;-69
2023/08/11 04:37:04;;;;;;;1.48;1.38;;;20.80;72.50;;;;;;5066959;28;20663;-69
2023/08/11 04:39:35;;;;;;;1.45;1.35;;;20.80;72.50;;;;;;5107845;28;20199;-70
2023/08/11 04:42:01;;;;;;;1.70;1.60;;;20.80;72.50;;;;;;5075061;28;20180;-70
2023/08/11 04:44:28;;;;;;;1.55;1.45;;;20.80;72.50;;;;;;5070028;28;20185;-69
2023/08/11 04:46:53;;;;;;;1.13;1.13;;;20.80;72.60;;;;;;5090357;28;20186;-69
2023/08/11 04:49:19;;;;;;;1.60;1.50;;;20.80;72.50;;;;;;5058268;28;20238;-69
2023/08/11 04:51:45;;;;;;;1.55;1.45;;;20.80;72.60;;;;;;5091669;28;20212;-69
2023/08/11 04:54:11;;;;;;;1.60;1.50;;;20.80;72.60;;;;;;5083211;28;20181;-70
2023/08/11 04:56:37;;;;;;;1.60;1.50;;;20.80;72.50;;;;;;5075167;28;20238;-70
2023/08/11 04:59:03;;;;;;;1.45;1.35;;;20.80;72.50;;;;;;5057878;28;20243;-70
2023/08/11 05:01:29;;;;;;;1.40;1.30;;;20.80;72.50;;;;;;5081860;28;20211;-70
2023/08/11 05:03:55;;;;;;;1.38;1.27;;;20.80;72.50;;;;;;5067539;28;20266;-69
2023/08/11 05:06:20;;;;;;;1.50;1.40;;;20.80;72.50;;;;;;5074897;28;20256;-70
2023/08/11 05:08:47;;;;;;;1.40;1.30;;;20.80;72.50;;;;;;5086234;28;20215;-69
2023/08/11 05:11:13;;;;;;;1.52;1.42;;;20.80;72.50;;;;;;5103257;28;20593;-69
2023/08/11 05:13:39;;;;;;;1.45;1.35;;;20.80;72.50;;;;;;5086621;28;20216;-69
2023/08/11 05:16:04;;;;;;;1.40;1.30;;;20.80;72.50;;;;;;5082732;28;20188;-70
2023/08/11 05:18:30;;;;;;;1.40;1.30;;;20.80;72.50;;;;;;5082573;28;20208;-70
2023/08/11 05:20:56;;;;;;;1.45;1.35;;;20.80;72.50;;;;;;5091215;28;20189;-69
2023/08/11 05:23:22;;;;;;;1.60;1.50;;;20.80;72.50;;;;;;5074144;28;20192;-69
2023/08/11 05:25:48;;;;;;;1.67;1.58;;;20.80;72.50;;;;;;5082503;28;20192;-69
2023/08/11 05:28:14;;;;;;;1.92;1.40;;;20.80;72.50;;;;;;5061907;28;20203;-70
2023/08/11 05:30:40;;;;;;;1.60;1.50;;;20.80;72.50;;;;;;5095904;28;20671;-69
2023/08/11 05:33:05;;;;;;;1.70;1.60;;;20.80;72.50;;;;;;5074258;28;20236;-70
2023/08/11 05:35:31;;;;;;;1.63;1.52;;;20.80;72.60;;;;;;5068857;28;20217;-69
2023/08/11 05:37:59;;;;;;;1.63;1.52;;;20.80;72.50;;;;;;5075244;28;20205;-69
2023/08/11 05:40:24;;;;;;;1.50;1.40;;;20.80;72.60;;;;;;5063752;28;20212;-70
2023/08/11 05:42:50;;;;;;;1.45;1.35;;;20.80;72.60;;;;;;5083588;28;20269;-69
2023/08/11 05:45:16;;;;;;;1.35;1.25;;;20.80;72.60;;;;;;5091989;28;20247;-71
2023/08/11 05:47:42;;;;;;;1.52;1.42;;;20.80;72.60;;;;;;5069153;28;20236;-70
2023/08/11 05:50:08;;;;;;;1.38;1.27;;;20.80;72.60;;;;;;5073961;28;20252;-69
2023/08/11 05:52:34;;;;;;;1.20;1.20;;;20.80;72.60;;;;;;5074294;28;20201;-70
2023/08/11 05:54:59;;;;;;;1.35;1.25;;;20.80;72.50;;;;;;5057319;28;20184;-69
2023/08/11 05:57:25;;;;;;;1.45;1.35;;;20.80;72.50;;;;;;5090851;28;20275;-69
2023/08/11 05:59:51;;;;;;;1.58;1.48;;;20.70;72.40;;;;;;5071209;28;20326;-70
2023/08/11 06:02:17;;;;;;;1.40;1.30;;;20.80;72.60;;;;;;5091672;28;20196;-69
2023/08/11 06:04:44;;;;;;;1.50;1.40;;;20.80;72.60;;;;;;5073728;28;20185;-70
2023/08/11 06:07:10;;;;;;;1.48;1.38;;;20.70;72.50;;;;;;5073639;28;20202;-70
2023/08/11 06:09:36;;;;;;;1.45;1.35;;;20.80;72.60;;;;;;5073554;28;20699;-69
2023/08/11 06:12:02;;;;;;;1.55;1.45;;;20.70;72.50;;;;;;5073331;28;20227;-70
2023/08/11 06:14:28;;;;;;;1.48;1.38;;;20.80;72.60;;;;;;5056629;28;20185;-70
2023/08/11 06:16:54;;;;;;;1.50;1.40;;;20.80;72.60;;;;;;5064855;28;20288;-71
2023/08/11 06:19:19;;;;;;;1.65;1.55;;;20.80;72.60;;;;;;5073300;28;20240;-70
2023/08/11 06:21:45;;;;;;;1.25;1.15;;;20.80;72.60;;;;;;5073299;28;20189;-69
2023/08/11 06:24:11;;;;;;;1.73;1.63;;;20.80;72.70;;;;;;5073336;28;20189;-69
2023/08/11 06:26:37;;;;;;;1.70;1.60;;;20.80;72.60;;;;;;5070636;28;20220;-69
2023/08/11 06:29:04;;;;;;;1.45;1.35;;;20.80;72.70;;;;;;5068556;28;20214;-69
2023/08/11 06:31:31;;;;;;;1.40;1.30;;;20.80;72.70;;;;;;5042850;28;20193;-69
2023/08/11 06:33:57;;;;;;;1.38;1.27;;;20.80;72.70;;;;;;5073833;28;20189;-69
2023/08/11 06:36:22;;;;;;;1.40;1.30;;;20.80;72.70;;;;;;5082049;28;20195;-68
2023/08/11 06:38:48;;;;;;;1.52;1.42;;;20.80;72.70;;;;;;5073246;28;20254;-70
2023/08/11 06:41:14;;;;;;;1.42;1.33;;;20.80;72.70;;;;;;5081787;28;20192;-70
2023/08/11 06:43:41;;;;;;;1.35;1.25;;;20.80;72.70;;;;;;5073318;28;20656;-69
2023/08/11 06:46:07;;;;;;;1.60;1.50;;;20.80;72.80;;;;;;5071779;28;20193;-69
2023/08/11 06:48:32;;;;;;;1.40;1.30;;;20.80;72.70;;;;;;5073388;28;20613;-69
2023/08/11 06:50:58;;;;;;;1.33;1.30;;;20.80;72.70;;;;;;5075099;28;20200;-70
2023/08/11 06:53:24;;;;;;;1.25;1.17;;;20.80;72.80;;;;;;5077173;28;20296;-70
2023/08/11 06:55:51;;;;;;;1.40;1.30;;;20.80;72.80;;;;;;5077020;28;20208;-69
2023/08/11 06:58:17;;;;;;;1.33;1.23;;;20.80;72.80;;;;;;5076913;28;20212;-69
2023/08/11 07:00:43;;;;;;;1.48;1.38;;;20.80;72.80;;;;;;5060764;28;20168;-69
2023/08/11 07:03:09;;;;;;;1.40;1.30;;;20.80;72.80;;;;;;5076989;28;20207;-69
2023/08/11 07:05:35;;;;;;;1.35;1.35;;;20.80;72.80;;;;;;5077054;28;20188;-71
2023/08/11 07:08:01;;;;;;;1.52;1.42;;;20.80;72.90;;;;;;5076977;28;20201;-69
2023/08/11 07:10:26;;;;;;;1.70;1.60;;;20.80;72.90;;;;;;5076885;28;20657;-69
2023/08/11 07:12:52;;;;;;;1.10;1.10;;;20.80;73.00;;;;;;5076995;28;20587;-70
2023/08/11 07:15:18;;;;;;;1.45;1.35;;;20.80;73.00;;;;;;5076834;28;20181;-70
2023/08/11 07:17:44;;;;;;;1.10;1.10;;;20.80;72.90;;;;;;5076572;28;20188;-69
2023/08/11 07:20:10;;;;;;;1.48;1.38;;;20.80;73.10;;;;;;5077008;28;20200;-70
2023/08/11 07:22:36;;;;;;;1.45;1.35;;;20.80;72.90;;;;;;5076824;28;20181;-70
2023/08/11 07:25:02;;;;;;;1.42;1.33;;;20.70;72.90;;;;;;5076580;28;20610;-70
2023/08/11 07:27:27;;;;;;;1.60;1.50;;;20.80;73.00;;;;;;5076265;28;20762;-69
2023/08/11 07:29:53;;;;;;;1.48;1.38;;;20.80;73.00;;;;;;5076421;28;20200;-69
2023/08/11 07:32:19;;;;;;;1.42;1.33;;;20.80;73.00;;;;;;5084842;28;20209;-69
2023/08/11 07:34:45;;;;;;;1.42;1.33;;;20.80;73.00;;;;;;5059799;28;20184;-69
2023/08/11 07:37:10;;;;;;;1.60;1.50;;;20.80;73.30;;;;;;5088078;28;20192;-69
2023/08/11 07:39:36;;;;;;;1.20;1.20;;;20.70;72.90;;;;;;5090804;28;20591;-69
2023/08/11 07:42:02;;;;;;;1.45;1.35;;;20.80;73.10;;;;;;5084431;28;20646;-69
2023/08/11 07:44:30;;;;;;;1.65;1.42;;;20.80;73.10;;;;;;5089264;28;20196;-70
2023/08/11 07:46:56;;;;;;;1.45;1.35;;;20.80;73.00;;;;;;5071393;28;20192;-69
2023/08/11 07:49:23;;;;;;;1.40;1.30;;;20.80;73.10;;;;;;5083990;28;20220;-70
2023/08/11 07:51:49;;;;;;;1.70;1.60;;;20.80;73.00;;;;;;5076175;28;20193;-69
2023/08/11 07:54:16;;;;;;;1.42;1.33;;;20.80;73.00;;;;;;5095381;28;20249;-71
2023/08/11 07:56:43;;;;;;;1.58;1.48;;;20.80;73.00;;;;;;5105933;28;20198;-69
2023/08/11 07:59:09;;;;;;;1.60;1.50;;;20.80;73.10;;;;;;5102804;28;20195;-70
2023/08/11 08:01:36;;;;;;;1.60;1.50;;;20.80;73.10;;;;;;5075619;28;20173;-69
2023/08/11 08:04:03;;;;;;;1.70;1.60;;;20.80;73.30;;;;;;5075855;28;20214;-69
2023/08/11 08:06:32;;;;;;;1.65;1.55;;;20.80;73.20;;;;;;5084201;28;20256;-69
2023/08/11 08:08:59;;;;;;;1.73;1.63;;;20.90;73.30;;;;;;5083760;28;20292;-69
2023/08/11 08:11:26;;;;;;;1.70;1.60;;;20.90;73.20;;;;;;5104505;28;20183;-69
2023/08/11 08:13:51;;;;;;;1.45;1.35;;;20.90;73.10;;;;;;5079976;28;20230;-71
2023/08/11 08:16:17;;;;;;;1.58;1.48;;;21.00;73.10;;;;;;5078264;28;20695;-69
2023/08/11 08:18:43;;;;;;;1.42;1.33;;;21.00;73.00;;;;;;5086943;28;20686;-69
2023/08/11 08:21:08;;;;;;;1.88;1.77;;;21.00;73.00;;;;;;5096879;28;20181;-69
2023/08/11 08:23:34;;;;;;;1.55;1.45;;;21.00;72.90;;;;;;5065530;28;20192;-69
2023/08/11 08:26:00;;;;;;;1.60;1.50;;;21.10;73.00;;;;;;5101944;28;20240;-69
2023/08/11 08:28:26;;;;;;;1.67;1.58;;;21.10;72.90;;;;;;5083368;28;20215;-69
2023/08/11 08:30:52;;;;;;;1.70;1.60;;;21.10;72.90;;;;;;5083610;28;20184;-69
2023/08/11 08:33:18;;;;;;;1.67;1.58;;;21.10;72.90;;;;;;5083907;28;20215;-71
2023/08/11 08:35:43;;;;;;;1.50;1.40;;;21.10;72.80;;;;;;5073053;28;20188;-69
2023/08/11 08:38:09;;;;;;;1.80;1.70;;;21.10;73.00;;;;;;5102297;28;20286;-69
2023/08/11 08:40:36;;;;;;;1.50;1.40;;;21.10;73.00;;;;;;5087117;28;20184;-69
2023/08/11 08:43:06;;;;;;;1.30;1.20;;;21.10;73.00;;;;;;5077819;28;20187;-69
2023/08/11 08:45:34;;;;;;;1.55;1.45;;;21.20;73.00;;;;;;5081491;28;20237;-69
2023/08/11 08:48:08;;;;;;;1.50;1.40;;;21.20;73.10;;;;;;5074593;28;20211;-69
2023/08/11 08:50:33;;;;;;;1.60;1.50;;;21.20;73.10;;;;;;5074603;28;20204;-71
2023/08/11 08:53:01;;;;;;;1.40;1.30;;;21.20;73.00;;;;;;5071584;28;20217;-68
2023/08/11 08:55:27;;;;;;;1.50;1.40;;;21.20;73.00;;;;;;5101156;28;20185;-69
2023/08/11 08:57:55;;;;;;;1.60;1.50;;;21.20;73.00;;;;;;5082770;28;20211;-69
2023/08/11 09:00:20;;;;;;;1.63;1.52;;;21.20;73.00;;;;;;5086835;28;20199;-69
2023/08/11 09:02:48;;;;;;;2.13;1.92;;;21.20;72.90;;;;;;5069889;28;20180;-69
2023/08/11 09:05:14;;;;;;;1.58;1.48;;;21.20;72.90;;;;;;5076379;28;20184;-69
2023/08/11 09:07:40;;;;;;;1.42;1.33;;;21.20;72.80;;;;;;5079346;28;20241;-69
2023/08/11 09:10:07;;;;;;;1.60;1.50;;;21.20;72.80;;;;;;5095950;28;20181;-69
2023/08/11 09:12:33;;;;;;;2.30;1.90;;;21.30;72.90;;;;;;5082351;28;20261;-69
2023/08/11 09:15:09;;;;;;;1.80;1.70;;;21.30;72.90;;;;;;5074339;28;20181;-69
2023/08/11 09:17:40;;;;;;;1.60;1.50;;;21.30;72.90;;;;;;5092038;28;20227;-69
2023/08/11 09:20:09;;;;;;;1.40;1.30;;;21.30;72.90;;;;;;5083049;28;20184;-69
2023/08/11 09:22:38;;;;;;;1.65;1.55;;;21.30;72.90;;;;;;5095683;28;20271;-69
2023/08/11 09:25:04;;;;;;;1.55;1.45;;;21.40;73.00;;;;;;5086402;28;20619;-69
2023/08/11 09:27:30;;;;;;;1.70;1.60;;;21.30;72.90;;;;;;5065952;28;20212;-68
2023/08/11 09:29:57;;;;;;;1.70;1.60;;;21.30;73.10;;;;;;5074625;28;20214;-70
2023/08/11 09:32:23;;;;;;;1.50;1.40;;;21.30;72.90;;;;;;5084866;28;20250;-69
2023/08/11 09:34:49;;;;;;;1.48;1.38;;;21.30;73.00;;;;;;5103024;28;20270;-69
2023/08/11 09:37:16;;;;;;;1.60;1.50;;;21.40;73.30;;;;;;5065757;28;20656;-68
2023/08/11 09:39:42;;;;;;;1.60;1.50;;;21.30;73.10;;;;;;5089340;28;20197;-69
2023/08/11 09:42:14;;;;;;;1.83;1.63;;;21.40;73.10;;;;;;5099237;28;20211;-69
2023/08/11 09:44:42;;;;;;;1.60;1.50;;;21.40;73.10;;;;;;5082621;28;20181;-69
2023/08/11 09:47:11;;;;;;;1.67;1.58;;;21.30;73.00;;;;;;5099256;28;20272;-69
2023/08/11 09:49:37;;;;;;;1.80;1.70;;;21.40;73.20;;;;;;5064705;28;20200;-69
2023/08/11 09:52:04;;;;;;;1.70;1.60;;;21.40;73.10;;;;;;5073877;28;20223;-69
2023/08/11 09:54:31;;;;;;;1.90;1.80;;;21.40;73.20;;;;;;5073974;28;20249;-69
2023/08/11 09:56:59;;;;;;;1.50;1.40;;;21.40;73.10;;;;;;5082173;28;20181;-69
2023/08/11 09:59:26;;;;;;;1.80;1.70;;;21.40;73.10;;;;;;5102520;28;20200;-69
2023/08/11 10:01:57;;;;;;;1.70;1.60;;;21.40;73.10;;;;;;5077110;28;20275;-69
2023/08/11 10:04:43;;;;;;;1.67;1.58;;;21.40;73.10;;;;;;5084059;28;20195;-69
2023/08/11 10:07:13;;;;;;;1.90;1.80;;;21.40;73.10;;;;;;5095880;28;20173;-69
2023/08/11 10:09:43;;;;;;;1.50;1.40;;;21.40;73.20;;;;;;5062600;28;20214;-69
2023/08/11 10:12:10;;;;;;;2.15;1.52;;;21.40;73.20;;;;;;5075306;28;20209;-69
2023/08/11 10:14:39;;;;;;;1.52;1.42;;;21.40;73.30;;;;;;5074156;28;20181;-69
2023/08/11 10:17:05;;;;;;;1.50;1.40;;;21.40;73.20;;;;;;5098410;28;20176;-69
2023/08/11 10:19:32;;;;;;;1.60;1.50;;;21.40;73.10;;;;;;5073282;28;20221;-69
2023/08/11 10:21:58;;;;;;;1.60;1.50;;;21.40;73.30;;;;;;5090499;28;20193;-69
2023/08/11 10:24:25;;;;;;;1.50;1.40;;;21.40;73.10;;;;;;5099885;28;20223;-69
2023/08/11 10:26:52;;;;;;;1.40;1.30;;;21.40;73.20;;;;;;5066421;28;20195;-69
2023/08/11 10:29:19;;;;;;;1.85;1.60;;;21.40;73.10;;;;;;5097765;28;20555;-69
2023/08/11 10:31:58;;;;;;;1.70;1.60;;;21.40;73.00;;;;;;5077862;28;20192;-69
2023/08/11 10:34:26;;;;;;;1.63;1.52;;;21.40;73.00;;;;;;5086004;28;20294;-69
2023/08/11 10:36:58;;;;;;;2.15;1.10;;;21.40;73.10;;;;;;5077471;28;20195;-69
2023/08/11 10:39:24;;;;;;;1.30;1.20;;;21.40;73.00;;;;;;5094019;28;20205;-69
2023/08/11 10:41:50;;;;;;;1.50;1.40;;;21.50;73.10;;;;;;5066147;28;20192;-70
2023/08/11 10:44:26;;;;;;;1.60;1.50;;;21.50;73.20;;;;;;5075999;28;20181;-69
2023/08/11 10:46:52;;;;;;;1.55;1.45;;;21.40;73.10;;;;;;5085714;28;20188;-69
2023/08/11 10:49:22;;;;;;;1.70;1.60;;;21.50;73.20;;;;;;5095041;28;20209;-69
2023/08/11 10:51:47;;;;;;;1.75;1.65;;;21.50;73.10;;;;;;5081880;28;20202;-70
2023/08/11 10:54:25;;;;;;;1.77;1.67;;;21.50;73.40;;;;;;5064033;28;20273;-69
2023/08/11 10:56:52;;;;;;;1.63;1.52;;;21.50;73.20;;;;;;5075751;28;20195;-69
2023/08/11 10:59:31;;;;;;;1.48;1.38;;;21.50;73.20;;;;;;5087933;28;20317;-69
2023/08/11 11:01:59;;;;;;;1.50;1.40;;;21.50;73.20;;;;;;5094286;28;20211;-69
2023/08/11 11:04:31;;;;;;;1.85;1.75;;;21.50;73.20;;;;;;5102519;28;20196;-69
2023/08/11 11:06:59;;;;;;;1.50;1.40;;;21.50;73.10;;;;;;5085530;28;20188;-69
2023/08/11 11:09:27;;;;;;;1.52;1.42;;;21.50;73.10;;;;;;5076483;28;20269;-69
2023/08/11 11:11:54;;;;;;;1.70;1.60;;;21.50;73.00;;;;;;5059987;28;20565;-69
2023/08/11 11:14:21;;;;;;;1.88;1.77;;;21.50;73.00;;;;;;5069234;28;20197;-69
2023/08/11 11:16:47;;;;;;;1.55;1.45;;;21.50;73.00;;;;;;5059979;28;20181;-69
2023/08/11 11:19:13;;;;;;;1.73;1.63;;;21.50;73.20;;;;;;5076574;28;20381;-70
2023/08/11 11:21:42;;;;;;;1.50;1.40;;;21.50;73.10;;;;;;5088412;28;20191;-69
2023/08/11 11:24:09;;;;;;;1.60;1.50;;;21.50;73.10;;;;;;5071773;28;20184;-69
2023/08/11 11:26:35;;;;;;;1.67;1.58;;;21.50;73.20;;;;;;5094307;28;20195;-69
2023/08/11 11:29:04;;;;;;;1.30;1.20;;;21.50;73.20;;;;;;5076377;28;20707;-69
2023/08/11 11:31:34;;;;;;;1.50;1.40;;;21.50;73.20;;;;;;5095319;28;20652;-69
2023/08/11 11:34:02;;;;;;;1.75;1.65;;;21.50;73.20;;;;;;5088521;28;20223;-69
2023/08/11 11:36:30;;;;;;;1.60;1.50;;;21.50;73.10;;;;;;5075047;28;20671;-69
2023/08/11 11:38:56;;;;;;;1.55;1.45;;;21.50;73.30;;;;;;5076209;28;20201;-69
2023/08/11 11:41:22;;;;;;;1.30;1.25;;;21.50;73.20;;;;;;5084665;28;20192;-69
2023/08/11 11:43:50;;;;;;;1.65;1.40;;;21.50;73.30;;;;;;5098853;28;20273;-69
2023/08/11 11:46:19;;;;;;;1.65;1.55;;;21.60;73.40;;;;;;5079950;28;20189;-68
2023/08/11 11:48:55;;;;;;;1.67;1.58;;;21.60;73.30;;;;;;5067835;28;20201;-69
2023/08/11 11:51:26;;;;;;;1.80;1.70;;;21.60;73.40;;;;;;5076294;28;20206;-70
2023/08/11 11:53:55;;;;;;;1.80;1.70;;;21.60;73.40;;;;;;5076354;28;20212;-69
2023/08/11 11:56:22;;;;;;;1.40;1.30;;;21.50;73.20;;;;;;5067597;28;20184;-69
2023/08/11 11:58:49;;;;;;;1.70;1.60;;;21.60;73.30;;;;;;5075616;28;20196;-69
2023/08/11 12:01:20;;;;;;;1.77;1.67;;;21.60;73.20;;;;;;5075620;28;20184;-70
2023/08/11 12:03:48;;;;;;;1.50;1.40;;;21.60;73.20;;;;;;5084266;28;20200;-69
2023/08/11 12:06:19;;;;;;;1.58;1.48;;;21.60;73.10;;;;;;5084156;28;20199;-69
2023/08/11 12:08:51;;;;;;;1.55;1.45;;;21.60;73.10;;;;;;5087724;28;20291;-69
2023/08/11 12:11:25;;;;;;;1.50;1.40;;;21.60;73.20;;;;;;5104772;28;20176;-69
2023/08/11 12:13:51;;;;;;;1.60;1.50;;;21.60;73.20;;;;;;5079955;28;20204;-69
2023/08/11 12:16:18;;;;;;;1.85;1.75;;;21.60;73.20;;;;;;5097878;28;20207;-69
2023/08/11 12:18:43;;;;;;;1.73;1.63;;;21.60;73.30;;;;;;5078243;28;20713;-69
2023/08/11 12:21:11;;;;;;;1.33;1.30;;;21.60;73.20;;;;;;5080528;28;20181;-69
2023/08/11 12:23:37;;;;;;;1.60;1.50;;;21.60;73.20;;;;;;5094586;28;20188;-69
2023/08/11 12:26:04;;;;;;;1.80;1.70;;;21.60;73.20;;;;;;5081457;28;20192;-69
2023/08/11 12:28:31;;;;;;;1.70;1.60;;;21.60;73.90;;;;;;5100722;28;20215;-69
2023/08/11 12:30:57;;;;;;;1.88;1.77;;;21.60;73.10;;;;;;5075635;28;20205;-69
2023/08/11 12:33:23;;;;;;;1.70;1.60;;;21.60;73.10;;;;;;5075299;28;20314;-69
2023/08/11 12:35:49;;;;;;;1.48;1.38;;;21.60;73.10;;;;;;5087104;28;20176;-69
2023/08/11 12:38:20;;;;;;;1.60;1.50;;;21.60;73.10;;;;;;5079589;28;20211;-69
2023/08/11 12:40:48;;;;;;;1.45;1.35;;;21.60;73.10;;;;;;5086791;28;20181;-69
2023/08/11 12:43:15;;;;;;;1.83;1.60;;;21.60;73.10;;;;;;5083228;28;20212;-71
2023/08/11 12:45:42;;;;;;;1.70;1.60;;;21.60;73.10;;;;;;5075245;28;20200;-69
2023/08/11 12:48:09;;;;;;;1.50;1.40;;;21.60;73.10;;;;;;5091559;28;20227;-69